Spar Lyra — LAZP5 — position and weather

sailwx.info

Track history (hours):
 
Tides and Currents Weather Stations Pressure Air Temp Water Temp Dewpoint Dewpoint Depression Visibility Wind Speed Wind Dir Waves Ship Positions

Spar Lyra

Last reported at 2017-Sep-21 17:47 UTC. Time now 2017-Sep-21 23:14 UTC.
Position N 29°44' W 095°09'.

Length 190 m; draft 7.1 m.

Type: Cargo ship. MMSI: 257316000.

Date/timePositionNaut miles runAvg speedWind from/ knotsBaromVisibWave heightAir tempDewpointWater temp
2017-Sep-21 17:47N 29°44' W 095°09'0 0.5
2017-Sep-21 17:29N 29°44' W 095°09'3 4.8
2017-Sep-21 16:55N 29°45' W 095°06'3 6.6
2017-Sep-21 16:29N 29°44' W 095°03'4 7.6
2017-Sep-21 16:00N 29°42' W 094°59'511.1
2017-Sep-21 15:30N 29°37' W 094°57'612.0
2017-Sep-21 15:00N 29°31' W 094°53'  
2017-Sep-17 17:40N 19°29' W 095°56'215.4
2017-Sep-17 17:30N 19°26' W 095°56'815.2
2017-Sep-17 17:00N 19°19' W 095°58'612.7
2017-Sep-17 16:30N 19°12' W 095°59'511.2
2017-Sep-17 16:00N 19°12' W 096°05'4 6.0
2017-Sep-17 15:25N 19°13' W 096°08'0 0.0
2017-Sep-17 14:58N 19°13' W 096°08'0 0.0
2017-Sep-17 14:28N 19°13' W 096°08'0 0.0
2017-Sep-17 13:58N 19°13' W 096°08'0 0.0
2017-Sep-17 13:28N 19°13' W 096°08'0 0.0
2017-Sep-17 12:58N 19°13' W 096°08'0 0.0
2017-Sep-17 12:28N 19°13' W 096°08'0 0.0
2017-Sep-17 11:58N 19°13' W 096°08'0 0.0
2017-Sep-17 11:28N 19°13' W 096°08'0 0.0
2017-Sep-17 10:58N 19°13' W 096°08'0 0.0
2017-Sep-17 10:28N 19°13' W 096°08'0 0.0
2017-Sep-17 09:58N 19°13' W 096°08'0 0.0
2017-Sep-17 09:28N 19°13' W 096°08'0 0.0
2017-Sep-17 08:58N 19°13' W 096°08'0 0.0
2017-Sep-17 08:28N 19°13' W 096°08'0 0.0
2017-Sep-17 07:58N 19°13' W 096°08'0 0.0
2017-Sep-17 07:28N 19°13' W 096°08'0 0.0
2017-Sep-17 06:58N 19°13' W 096°08'0 0.0
2017-Sep-17 06:28N 19°13' W 096°08'0 0.0
2017-Sep-17 05:58N 19°13' W 096°08'0 0.0
2017-Sep-17 05:28N 19°13' W 096°08'0 0.0
2017-Sep-17 04:52N 19°13' W 096°08'0 0.0
2017-Sep-17 04:28N 19°13' W 096°08'0 0.0
2017-Sep-17 03:58N 19°13' W 096°08'0 0.0
2017-Sep-17 03:28N 19°13' W 096°08'0 0.0
2017-Sep-17 02:52N 19°13' W 096°08'0 0.0
2017-Sep-17 02:25N 19°13' W 096°08'0 0.0
2017-Sep-17 01:58N 19°13' W 096°08'0 0.0
2017-Sep-17 01:28N 19°13' W 096°08'0 0.0
2017-Sep-17 00:58N 19°13' W 096°08'0 0.0
2017-Sep-17 00:28N 19°13' W 096°08'0 0.0
2017-Sep-16 23:58N 19°13' W 096°08'0 0.0
2017-Sep-16 23:28N 19°13' W 096°08'0 0.0
2017-Sep-16 22:52N 19°13' W 096°08'0 0.0
2017-Sep-16 22:28N 19°13' W 096°08'0 0.0
2017-Sep-16 21:58N 19°13' W 096°08'0 0.0
2017-Sep-16 21:28N 19°13' W 096°08'0 0.0
2017-Sep-16 20:58N 19°13' W 096°08'0 0.0
2017-Sep-16 20:30N 19°13' W 096°08'2 4.0
2017-Sep-16 20:00N 19°12' W 096°06'3 7.0
2017-Sep-16 19:30N 19°11' W 096°03'4 7.1
2017-Sep-16 19:00N 19°09' W 095°59'1 2.1
2017-Sep-16 18:27N 19°09' W 096°01'0 0.0
2017-Sep-16 17:58N 19°09' W 096°01'0 0.0
2017-Sep-16 17:27N 19°09' W 096°01'0 0.0
2017-Sep-16 16:54N 19°09' W 096°01'0 0.1
2017-Sep-16 16:27N 19°09' W 096°00'0 0.1
2017-Sep-16 16:00N 19°09' W 096°00'0 0.1
2017-Sep-16 15:27N 19°09' W 096°00'0 0.0
2017-Sep-16 14:58N 19°09' W 096°00'0 0.0
2017-Sep-16 14:27N 19°09' W 096°00'0 0.0
2017-Sep-16 13:57N 19°09' W 096°00'0 0.0
2017-Sep-16 13:27N 19°09' W 096°00'0 0.0
2017-Sep-16 12:57N 19°09' W 096°00'0 0.0
2017-Sep-16 12:27N 19°09' W 096°00'0 0.2
2017-Sep-16 11:57N 19°09' W 096°00'0 0.1
2017-Sep-16 11:27N 19°09' W 096°00'0 0.1
2017-Sep-16 10:58N 19°09' W 096°00'0 0.0
2017-Sep-16 10:27N 19°09' W 096°00'0 0.0
2017-Sep-16 09:57N 19°09' W 096°00'0 0.0
2017-Sep-16 09:27N 19°09' W 096°00'0 0.1
2017-Sep-16 08:57N 19°09' W 096°00'0 0.1
2017-Sep-16 08:27N 19°09' W 096°00'0 0.0
2017-Sep-16 07:57N 19°09' W 096°00'0 0.1
2017-Sep-16 07:27N 19°09' W 096°00'0 0.0
2017-Sep-16 06:58N 19°09' W 096°00'0 0.2
2017-Sep-16 06:27N 19°09' W 096°01'0 0.0
2017-Sep-16 05:58N 19°09' W 096°01'0 0.2
2017-Sep-16 05:28N 19°09' W 096°01'0 0.1
2017-Sep-16 04:57N 19°09' W 096°01'0 0.0
2017-Sep-16 04:27N 19°09' W 096°01'0 0.0
2017-Sep-16 03:45N 19°09' W 096°01'0 0.0
2017-Sep-16 03:27N 19°09' W 096°01'0 0.0
2017-Sep-16 02:57N 19°09' W 096°01'0 0.0
2017-Sep-16 02:27N 19°09' W 096°01'0 0.0
2017-Sep-16 01:57N 19°09' W 096°01'0 0.0
2017-Sep-16 01:27N 19°09' W 096°01'0 0.0
2017-Sep-16 00:57N 19°09' W 096°01'0 0.0
2017-Sep-16 00:27N 19°09' W 096°01'0 0.0
2017-Sep-15 23:57N 19°09' W 096°01'0 0.0
2017-Sep-15 23:27N 19°09' W 096°01'0 0.1
2017-Sep-15 22:57N 19°09' W 096°01'0 0.1
2017-Sep-15 22:27N 19°09' W 096°01'0 0.1
2017-Sep-15 21:57N 19°09' W 096°00'0 0.0
2017-Sep-15 21:27N 19°09' W 096°00'0 0.0
2017-Sep-15 20:57N 19°09' W 096°00'0 0.1
2017-Sep-15 20:27N 19°09' W 096°00'0 0.0
2017-Sep-15 19:57N 19°09' W 096°00'0 0.1
2017-Sep-15 19:27N 19°09' W 096°00'0 0.0
2017-Sep-15 18:57N 19°09' W 096°00'0 0.0
2017-Sep-15 18:27N 19°09' W 096°00'0 0.0
2017-Sep-15 17:57N 19°09' W 096°00'0 0.0
2017-Sep-15 17:27N 19°09' W 096°00'0 0.1
2017-Sep-15 16:45N 19°09' W 096°00'0 0.0
2017-Sep-15 16:27N 19°09' W 096°00'0 0.0
2017-Sep-15 15:57N 19°09' W 096°00'0 0.0
2017-Sep-15 15:27N 19°09' W 096°00'0 0.1
2017-Sep-15 14:57N 19°09' W 096°00'0 0.0
2017-Sep-15 14:21N 19°09' W 096°00'0 0.0
2017-Sep-15 14:00N 19°09' W 096°00'0 0.1
2017-Sep-15 13:27N 19°09' W 096°00'0 0.1
2017-Sep-15 12:57N 19°09' W 096°00'0 0.0
2017-Sep-15 12:27N 19°09' W 096°00'0 0.0
2017-Sep-15 11:57N 19°09' W 096°00'0 0.0
2017-Sep-15 11:27N 19°09' W 096°00'0 0.0
2017-Sep-15 10:57N 19°09' W 096°00'0 0.0
2017-Sep-15 10:21N 19°09' W 096°01'0 0.0
2017-Sep-15 09:57N 19°09' W 096°01'0 0.0
2017-Sep-15 09:27N 19°09' W 096°01'0 0.0
2017-Sep-15 08:57N 19°09' W 096°01'0 0.0
2017-Sep-15 08:27N 19°09' W 096°01'0 0.0
2017-Sep-15 07:57N 19°09' W 096°00'0 0.0
2017-Sep-15 07:27N 19°09' W 096°01'0 0.0
2017-Sep-15 06:57N 19°09' W 096°01'0 0.0
2017-Sep-15 06:27N 19°09' W 096°01'0 0.0
2017-Sep-15 05:57N 19°09' W 096°01'0 0.0
2017-Sep-15 05:21N 19°09' W 096°01'0 0.0
2017-Sep-15 04:57N 19°09' W 096°01'0 0.0
2017-Sep-15 04:27N 19°09' W 096°01'0 0.0
2017-Sep-15 03:51N 19°09' W 096°01'0 0.0
2017-Sep-15 03:27N 19°09' W 096°01'0 0.0
2017-Sep-15 02:57N 19°09' W 096°01'0 0.0
2017-Sep-15 02:27N 19°09' W 096°01'0 0.0
2017-Sep-15 01:57N 19°09' W 096°01'0 0.0
2017-Sep-15 01:27N 19°09' W 096°01'0 0.0
2017-Sep-15 00:57N 19°09' W 096°01'0 0.0
2017-Sep-15 00:27N 19°09' W 096°01'0 0.0
2017-Sep-14 23:57N 19°09' W 096°01'0 0.0
2017-Sep-14 23:21N 19°09' W 096°01'0 0.0
2017-Sep-14 22:57N 19°09' W 096°01'0 0.0
2017-Sep-14 22:24N 19°09' W 096°01'0 0.0
2017-Sep-14 21:57N 19°09' W 096°01'0 0.0
2017-Sep-14 21:15N 19°09' W 096°01'0 0.0
2017-Sep-14 20:51N 19°09' W 096°01'0 0.1
2017-Sep-14 20:27N 19°09' W 096°01'0 0.1
2017-Sep-14 19:57N 19°09' W 096°01'0 0.1
2017-Sep-14 19:27N 19°09' W 096°01'0 0.0
2017-Sep-14 18:57N 19°09' W 096°01'0 0.0
2017-Sep-14 18:25N 19°09' W 096°01'0 0.1
2017-Sep-14 17:49N 19°09' W 096°00'0 0.1
2017-Sep-14 17:19N 19°09' W 096°00'0 0.0
2017-Sep-14 16:55N 19°09' W 096°00'0 0.1
2017-Sep-14 16:25N 19°09' W 096°00'0 0.1
2017-Sep-14 15:55N 19°09' W 096°00'0 0.0
2017-Sep-14 15:19N 19°09' W 096°00'0 0.0
2017-Sep-14 14:55N 19°09' W 096°00'0 0.0
2017-Sep-14 14:25N 19°09' W 096°00'0 0.0
2017-Sep-14 13:55N 19°09' W 096°00'0 0.0
2017-Sep-14 13:25N 19°09' W 096°00'0 0.0
2017-Sep-14 12:55N 19°09' W 096°00'0 0.0
2017-Sep-14 12:25N 19°09' W 096°00'0 0.1
2017-Sep-14 11:55N 19°09' W 096°00'0 0.1
2017-Sep-14 11:25N 19°09' W 096°00'0 0.0
2017-Sep-14 10:49N 19°09' W 096°01'0 0.0
2017-Sep-14 10:25N 19°09' W 096°01'0 0.0
2017-Sep-14 09:55N 19°09' W 096°01'0 0.0
2017-Sep-14 09:25N 19°09' W 096°01'0 0.0
2017-Sep-14 08:43N 19°09' W 096°01'0 0.0
2017-Sep-14 08:25N 19°09' W 096°01'0 0.0
2017-Sep-14 07:55N 19°09' W 096°01'0 0.0
2017-Sep-14 07:25N 19°09' W 096°01'0 0.0
2017-Sep-14 06:49N 19°09' W 096°01'0 0.1
2017-Sep-14 06:25N 19°09' W 096°01'0 0.0
2017-Sep-14 05:55N 19°09' W 096°01'0 0.2
2017-Sep-14 05:25N 19°09' W 096°01'1 1.6
2017-Sep-14 05:00N 19°09' W 096°01'3 5.9
2017-Sep-14 04:30N 19°12' W 096°01'611.4
2017-Sep-14 04:00N 19°18' W 096°00'4 8.0
2017-Sep-14 03:30N 19°22' W 096°00'612.5
2017-Sep-14 02:59N 19°28' W 096°00'613.4
2017-Sep-14 02:31N 19°35' W 096°01'713.9
2017-Sep-14 02:00N 19°42' W 096°01'714.4
2017-Sep-14 01:30N 19°49' W 096°01'714.5
2017-Sep-14 01:00N 19°56' W 096°01'714.2
2017-Sep-14 00:30N 20°03' W 096°01'56312.8
2017-Sep-12 04:20N 29°23' W 094°48'410.8
2017-Sep-12 03:57N 29°27' W 094°50'511.3
2017-Sep-12 03:30N 29°31' W 094°53'611.4
2017-Sep-12 03:00N 29°36' W 094°57'611.2
2017-Sep-12 02:30N 29°41' W 094°59'4 8.3
2017-Sep-12 02:00N 29°44' W 095°02'4 5.7
2017-Sep-12 01:22N 29°44' W 095°07'2 6.5
2017-Sep-12 00:59N 29°44' W 095°09'  
Track history (hours):
 
Tides and Currents Weather Stations Pressure Air Temp Water Temp Dewpoint Dewpoint Depression Visibility Wind Speed Wind Dir Waves Ship Positions

Spar Lyra

Last reported at 2017-Sep-21 17:47 UTC. Time now 2017-Sep-21 23:14 UTC.
Position N 29°44' W 095°09'.

Length 190 m; draft 7.1 m.

Type: Cargo ship. MMSI: 257316000.

Date/timePositionNaut miles runAvg speedWind from/ knotsBaromVisibWave heightAir tempDewpointWater temp
2017-Sep-21 17:47N 29°44' W 095°09'0 0.5
2017-Sep-21 17:29N 29°44' W 095°09'3 4.8
2017-Sep-21 16:55N 29°45' W 095°06'3 6.6
2017-Sep-21 16:29N 29°44' W 095°03'4 7.6
2017-Sep-21 16:00N 29°42' W 094°59'511.1
2017-Sep-21 15:30N 29°37' W 094°57'612.0
2017-Sep-21 15:00N 29°31' W 094°53'  
2017-Sep-17 17:40N 19°29' W 095°56'215.4
2017-Sep-17 17:30N 19°26' W 095°56'815.2
2017-Sep-17 17:00N 19°19' W 095°58'612.7
2017-Sep-17 16:30N 19°12' W 095°59'511.2
2017-Sep-17 16:00N 19°12' W 096°05'4 6.0
2017-Sep-17 15:25N 19°13' W 096°08'0 0.0
2017-Sep-17 14:58N 19°13' W 096°08'0 0.0
2017-Sep-17 14:28N 19°13' W 096°08'0 0.0
2017-Sep-17 13:58N 19°13' W 096°08'0 0.0
2017-Sep-17 13:28N 19°13' W 096°08'0 0.0
2017-Sep-17 12:58N 19°13' W 096°08'0 0.0
2017-Sep-17 12:28N 19°13' W 096°08'0 0.0
2017-Sep-17 11:58N 19°13' W 096°08'0 0.0
2017-Sep-17 11:28N 19°13' W 096°08'0 0.0
2017-Sep-17 10:58N 19°13' W 096°08'0 0.0
2017-Sep-17 10:28N 19°13' W 096°08'0 0.0
2017-Sep-17 09:58N 19°13' W 096°08'0 0.0
2017-Sep-17 09:28N 19°13' W 096°08'0 0.0
2017-Sep-17 08:58N 19°13' W 096°08'0 0.0
2017-Sep-17 08:28N 19°13' W 096°08'0 0.0
2017-Sep-17 07:58N 19°13' W 096°08'0 0.0
2017-Sep-17 07:28N 19°13' W 096°08'0 0.0
2017-Sep-17 06:58N 19°13' W 096°08'0 0.0
2017-Sep-17 06:28N 19°13' W 096°08'0 0.0
2017-Sep-17 05:58N 19°13' W 096°08'0 0.0
2017-Sep-17 05:28N 19°13' W 096°08'0 0.0
2017-Sep-17 04:52N 19°13' W 096°08'0 0.0
2017-Sep-17 04:28N 19°13' W 096°08'0 0.0
2017-Sep-17 03:58N 19°13' W 096°08'0 0.0
2017-Sep-17 03:28N 19°13' W 096°08'0 0.0
2017-Sep-17 02:52N 19°13' W 096°08'0 0.0
2017-Sep-17 02:25N 19°13' W 096°08'0 0.0
2017-Sep-17 01:58N 19°13' W 096°08'0 0.0
2017-Sep-17 01:28N 19°13' W 096°08'0 0.0
2017-Sep-17 00:58N 19°13' W 096°08'0 0.0
2017-Sep-17 00:28N 19°13' W 096°08'0 0.0
2017-Sep-16 23:58N 19°13' W 096°08'0 0.0
2017-Sep-16 23:28N 19°13' W 096°08'0 0.0
2017-Sep-16 22:52N 19°13' W 096°08'0 0.0
2017-Sep-16 22:28N 19°13' W 096°08'0 0.0
2017-Sep-16 21:58N 19°13' W 096°08'0 0.0
2017-Sep-16 21:28N 19°13' W 096°08'0 0.0
2017-Sep-16 20:58N 19°13' W 096°08'0 0.0
2017-Sep-16 20:30N 19°13' W 096°08'2 4.0
2017-Sep-16 20:00N 19°12' W 096°06'3 7.0
2017-Sep-16 19:30N 19°11' W 096°03'4 7.1
2017-Sep-16 19:00N 19°09' W 095°59'1 2.1
2017-Sep-16 18:27N 19°09' W 096°01'0 0.0
2017-Sep-16 17:58N 19°09' W 096°01'0 0.0
2017-Sep-16 17:27N 19°09' W 096°01'0 0.0
2017-Sep-16 16:54N 19°09' W 096°01'0 0.1
2017-Sep-16 16:27N 19°09' W 096°00'0 0.1
2017-Sep-16 16:00N 19°09' W 096°00'0 0.1
2017-Sep-16 15:27N 19°09' W 096°00'0 0.0
2017-Sep-16 14:58N 19°09' W 096°00'0 0.0
2017-Sep-16 14:27N 19°09' W 096°00'0 0.0
2017-Sep-16 13:57N 19°09' W 096°00'0 0.0
2017-Sep-16 13:27N 19°09' W 096°00'0 0.0
2017-Sep-16 12:57N 19°09' W 096°00'0 0.0
2017-Sep-16 12:27N 19°09' W 096°00'0 0.2
2017-Sep-16 11:57N 19°09' W 096°00'0 0.1
2017-Sep-16 11:27N 19°09' W 096°00'0 0.1
2017-Sep-16 10:58N 19°09' W 096°00'0 0.0
2017-Sep-16 10:27N 19°09' W 096°00'0 0.0
2017-Sep-16 09:57N 19°09' W 096°00'0 0.0
2017-Sep-16 09:27N 19°09' W 096°00'0 0.1
2017-Sep-16 08:57N 19°09' W 096°00'0 0.1
2017-Sep-16 08:27N 19°09' W 096°00'0 0.0
2017-Sep-16 07:57N 19°09' W 096°00'0 0.1
2017-Sep-16 07:27N 19°09' W 096°00'0 0.0
2017-Sep-16 06:58N 19°09' W 096°00'0 0.2
2017-Sep-16 06:27N 19°09' W 096°01'0 0.0
2017-Sep-16 05:58N 19°09' W 096°01'0 0.2
2017-Sep-16 05:28N 19°09' W 096°01'0 0.1
2017-Sep-16 04:57N 19°09' W 096°01'0 0.0
2017-Sep-16 04:27N 19°09' W 096°01'0 0.0
2017-Sep-16 03:45N 19°09' W 096°01'0 0.0
2017-Sep-16 03:27N 19°09' W 096°01'0 0.0
2017-Sep-16 02:57N 19°09' W 096°01'0 0.0
2017-Sep-16 02:27N 19°09' W 096°01'0 0.0
2017-Sep-16 01:57N 19°09' W 096°01'0 0.0
2017-Sep-16 01:27N 19°09' W 096°01'0 0.0
2017-Sep-16 00:57N 19°09' W 096°01'0 0.0
2017-Sep-16 00:27N 19°09' W 096°01'0 0.0
2017-Sep-15 23:57N 19°09' W 096°01'0 0.0
2017-Sep-15 23:27N 19°09' W 096°01'0 0.1
2017-Sep-15 22:57N 19°09' W 096°01'0 0.1
2017-Sep-15 22:27N 19°09' W 096°01'0 0.1
2017-Sep-15 21:57N 19°09' W 096°00'0 0.0
2017-Sep-15 21:27N 19°09' W 096°00'0 0.0
2017-Sep-15 20:57N 19°09' W 096°00'0 0.1
2017-Sep-15 20:27N 19°09' W 096°00'0 0.0
2017-Sep-15 19:57N 19°09' W 096°00'0 0.1
2017-Sep-15 19:27N 19°09' W 096°00'0 0.0
2017-Sep-15 18:57N 19°09' W 096°00'0 0.0
2017-Sep-15 18:27N 19°09' W 096°00'0 0.0
2017-Sep-15 17:57N 19°09' W 096°00'0 0.0
2017-Sep-15 17:27N 19°09' W 096°00'0 0.1
2017-Sep-15 16:45N 19°09' W 096°00'0 0.0
2017-Sep-15 16:27N 19°09' W 096°00'0 0.0
2017-Sep-15 15:57N 19°09' W 096°00'0 0.0
2017-Sep-15 15:27N 19°09' W 096°00'0 0.1
2017-Sep-15 14:57N 19°09' W 096°00'0 0.0
2017-Sep-15 14:21N 19°09' W 096°00'0 0.0
2017-Sep-15 14:00N 19°09' W 096°00'0 0.1
2017-Sep-15 13:27N 19°09' W 096°00'0 0.1
2017-Sep-15 12:57N 19°09' W 096°00'0 0.0
2017-Sep-15 12:27N 19°09' W 096°00'0 0.0
2017-Sep-15 11:57N 19°09' W 096°00'0 0.0
2017-Sep-15 11:27N 19°09' W 096°00'0 0.0
2017-Sep-15 10:57N 19°09' W 096°00'0 0.0
2017-Sep-15 10:21N 19°09' W 096°01'0 0.0
2017-Sep-15 09:57N 19°09' W 096°01'0 0.0
2017-Sep-15 09:27N 19°09' W 096°01'0 0.0
2017-Sep-15 08:57N 19°09' W 096°01'0 0.0
2017-Sep-15 08:27N 19°09' W 096°01'0 0.0
2017-Sep-15 07:57N 19°09' W 096°00'0 0.0
2017-Sep-15 07:27N 19°09' W 096°01'0 0.0
2017-Sep-15 06:57N 19°09' W 096°01'0 0.0
2017-Sep-15 06:27N 19°09' W 096°01'0 0.0
2017-Sep-15 05:57N 19°09' W 096°01'0 0.0
2017-Sep-15 05:21N 19°09' W 096°01'0 0.0
2017-Sep-15 04:57N 19°09' W 096°01'0 0.0
2017-Sep-15 04:27N 19°09' W 096°01'0 0.0
2017-Sep-15 03:51N 19°09' W 096°01'0 0.0
2017-Sep-15 03:27N 19°09' W 096°01'0 0.0
2017-Sep-15 02:57N 19°09' W 096°01'0 0.0
2017-Sep-15 02:27N 19°09' W 096°01'0 0.0
2017-Sep-15 01:57N 19°09' W 096°01'0 0.0
2017-Sep-15 01:27N 19°09' W 096°01'0 0.0
2017-Sep-15 00:57N 19°09' W 096°01'0 0.0
2017-Sep-15 00:27N 19°09' W 096°01'0 0.0
2017-Sep-14 23:57N 19°09' W 096°01'0 0.0
2017-Sep-14 23:21N 19°09' W 096°01'0 0.0
2017-Sep-14 22:57N 19°09' W 096°01'0 0.0
2017-Sep-14 22:24N 19°09' W 096°01'0 0.0
2017-Sep-14 21:57N 19°09' W 096°01'0 0.0
2017-Sep-14 21:15N 19°09' W 096°01'0 0.0
2017-Sep-14 20:51N 19°09' W 096°01'0 0.1
2017-Sep-14 20:27N 19°09' W 096°01'0 0.1
2017-Sep-14 19:57N 19°09' W 096°01'0 0.1
2017-Sep-14 19:27N 19°09' W 096°01'0 0.0
2017-Sep-14 18:57N 19°09' W 096°01'0 0.0
2017-Sep-14 18:25N 19°09' W 096°01'0 0.1
2017-Sep-14 17:49N 19°09' W 096°00'0 0.1
2017-Sep-14 17:19N 19°09' W 096°00'0 0.0
2017-Sep-14 16:55N 19°09' W 096°00'0 0.1
2017-Sep-14 16:25N 19°09' W 096°00'0 0.1
2017-Sep-14 15:55N 19°09' W 096°00'0 0.0
2017-Sep-14 15:19N 19°09' W 096°00'0 0.0
2017-Sep-14 14:55N 19°09' W 096°00'0 0.0
2017-Sep-14 14:25N 19°09' W 096°00'0 0.0
2017-Sep-14 13:55N 19°09' W 096°00'0 0.0
2017-Sep-14 13:25N 19°09' W 096°00'0 0.0
2017-Sep-14 12:55N 19°09' W 096°00'0 0.0
2017-Sep-14 12:25N 19°09' W 096°00'0 0.1
2017-Sep-14 11:55N 19°09' W 096°00'0 0.1
2017-Sep-14 11:25N 19°09' W 096°00'0 0.0
2017-Sep-14 10:49N 19°09' W 096°01'0 0.0
2017-Sep-14 10:25N 19°09' W 096°01'0 0.0
2017-Sep-14 09:55N 19°09' W 096°01'0 0.0
2017-Sep-14 09:25N 19°09' W 096°01'0 0.0
2017-Sep-14 08:43N 19°09' W 096°01'0 0.0
2017-Sep-14 08:25N 19°09' W 096°01'0 0.0
2017-Sep-14 07:55N 19°09' W 096°01'0 0.0
2017-Sep-14 07:25N 19°09' W 096°01'0 0.0
2017-Sep-14 06:49N 19°09' W 096°01'0 0.1
2017-Sep-14 06:25N 19°09' W 096°01'0 0.0
2017-Sep-14 05:55N 19°09' W 096°01'0 0.2
2017-Sep-14 05:25N 19°09' W 096°01'1 1.6
2017-Sep-14 05:00N 19°09' W 096°01'3 5.9
2017-Sep-14 04:30N 19°12' W 096°01'611.4
2017-Sep-14 04:00N 19°18' W 096°00'4 8.0
2017-Sep-14 03:30N 19°22' W 096°00'612.5
2017-Sep-14 02:59N 19°28' W 096°00'613.4
2017-Sep-14 02:31N 19°35' W 096°01'713.9
2017-Sep-14 02:00N 19°42' W 096°01'714.4
2017-Sep-14 01:30N 19°49' W 096°01'714.5
2017-Sep-14 01:00N 19°56' W 096°01'714.2
2017-Sep-14 00:30N 20°03' W 096°01'56312.8
2017-Sep-12 04:20N 29°23' W 094°48'410.8
2017-Sep-12 03:57N 29°27' W 094°50'511.3
2017-Sep-12 03:30N 29°31' W 094°53'611.4
2017-Sep-12 03:00N 29°36' W 094°57'611.2
2017-Sep-12 02:30N 29°41' W 094°59'4 8.3
2017-Sep-12 02:00N 29°44' W 095°02'4 5.7
2017-Sep-12 01:22N 29°44' W 095°07'2 6.5
2017-Sep-12 00:59N 29°44' W 095°09'  

Dump ship's entire track history